Time;durP1;ratioP1;P1;durP2;ratioP2;P2;SDS_P1;SDS_P2;PMS_P1;PMS_P2;Temp;Humidity;BMP_temperature;BMP_pressure;BME280_temperature;BME280_humidity;BME280_pressure;Samples;Min_cycle;Max_cycle;Signal;HPM_P1;HPM_P2
2022/09/15 00:00:50;;;;;;;6.07;2.35;;;14.20;99.90;;;;;;5078794;28;20137;-74
2022/09/15 00:03:16;;;;;;;7.25;2.67;;;14.20;99.90;;;;;;5056176;28;20396;-74
2022/09/15 00:05:43;;;;;;;5.47;2.40;;;14.20;99.90;;;;;;5082265;28;20052;-74
2022/09/15 00:08:11;;;;;;;8.15;2.10;;;14.20;99.90;;;;;;5080598;28;20110;-74
2022/09/15 00:10:52;;;;;;;6.15;2.13;;;14.20;99.90;;;;;;5057274;28;20447;-74
2022/09/15 00:13:19;;;;;;;7.05;2.25;;;14.10;99.90;;;;;;5066842;28;20408;-74
2022/09/15 00:15:45;;;;;;;9.55;2.72;;;14.20;99.90;;;;;;5080109;28;20447;-74
2022/09/15 00:18:11;;;;;;;7.40;2.10;;;14.20;99.90;;;;;;5084464;28;20050;-74
2022/09/15 00:20:42;;;;;;;4.93;2.05;;;14.20;99.90;;;;;;5086589;28;20484;-74
2022/09/15 00:23:10;;;;;;;6.47;2.25;;;14.20;99.90;;;;;;5060583;28;20044;-74
2022/09/15 00:25:44;;;;;;;4.60;2.05;;;14.20;99.90;;;;;;5055656;28;20049;-74
2022/09/15 00:28:11;;;;;;;8.55;2.00;;;14.20;99.90;;;;;;5074671;28;20048;-74
2022/09/15 00:30:46;;;;;;;7.70;2.20;;;14.30;99.90;;;;;;5086108;28;20048;-75
2022/09/15 00:33:13;;;;;;;5.18;2.00;;;14.30;99.90;;;;;;5064335;28;20131;-74
2022/09/15 00:35:41;;;;;;;8.25;2.47;;;14.30;99.90;;;;;;5064975;28;20043;-74
2022/09/15 00:38:08;;;;;;;5.90;1.98;;;14.40;99.90;;;;;;5073618;28;20060;-74
2022/09/15 00:40:43;;;;;;;3.85;1.95;;;14.40;99.90;;;;;;5057540;28;20486;-75
2022/09/15 00:43:10;;;;;;;6.40;2.47;;;14.50;99.90;;;;;;5075157;28;20037;-75
2022/09/15 00:45:37;;;;;;;7.88;2.55;;;14.40;99.90;;;;;;5061310;28;20105;-74
2022/09/15 00:48:04;;;;;;;7.88;2.72;;;14.40;99.90;;;;;;5061662;28;20043;-74
2022/09/15 00:50:33;;;;;;;6.22;2.70;;;14.40;99.90;;;;;;5060068;28;20036;-75
2022/09/15 00:53:03;;;;;;;7.72;2.97;;;14.40;99.90;;;;;;5088520;28;20456;-74
2022/09/15 00:55:40;;;;;;;8.45;3.08;;;14.30;99.90;;;;;;5072227;28;20048;-74
2022/09/15 00:58:10;;;;;;;10.48;3.22;;;14.20;99.90;;;;;;5071384;28;20055;-74
2022/09/15 01:00:41;;;;;;;6.88;3.00;;;14.30;99.90;;;;;;5085416;28;20040;-75
2022/09/15 01:03:06;;;;;;;6.00;2.85;;;14.30;99.90;;;;;;5076837;28;20044;-74
2022/09/15 01:05:41;;;;;;;7.63;3.63;;;14.30;99.90;;;;;;5043973;28;20388;-75
2022/09/15 01:08:26;;;;;;;7.95;2.90;;;14.30;99.90;;;;;;5088566;28;20106;-74
2022/09/15 01:10:52;;;;;;;5.78;2.30;;;14.30;99.90;;;;;;5068469;28;20048;-74
2022/09/15 01:13:18;;;;;;;4.63;2.22;;;14.30;99.90;;;;;;5068285;28;20048;-74
2022/09/15 01:15:56;;;;;;;7.38;2.38;;;14.40;99.90;;;;;;5060064;28;20041;-74
2022/09/15 01:18:31;;;;;;;4.15;2.40;;;14.40;99.90;;;;;;5059766;28;20049;-74
2022/09/15 01:21:29;;;;;;;8.45;2.13;;;14.50;99.90;;;;;;5077647;28;20045;-74
2022/09/15 01:24:17;;;;;;;6.95;2.10;;;14.50;99.90;;;;;;5056553;28;20044;-73
2022/09/15 01:26:56;;;;;;;7.18;2.25;;;14.50;99.90;;;;;;5055625;28;20106;-74
2022/09/15 01:29:46;;;;;;;8.70;2.58;;;14.50;99.90;;;;;;5063386;28;20075;-74
2022/09/15 01:35:23;;;;;;;5.03;2.10;;;14.50;99.90;;;;;;5070577;28;20080;-74
2022/09/15 01:37:58;;;;;;;6.32;1.90;;;14.50;99.90;;;;;;5056095;28;20053;-74
2022/09/15 01:40:27;;;;;;;6.05;1.70;;;14.60;99.90;;;;;;5076084;28;20448;-74
2022/09/15 01:42:55;;;;;;;4.40;2.10;;;14.60;99.90;;;;;;5056833;28;20087;-74
2022/09/15 01:45:28;;;;;;;7.07;1.88;;;14.60;99.90;;;;;;5076149;28;20119;-74
2022/09/15 01:47:56;;;;;;;5.65;1.83;;;14.60;99.90;;;;;;5058551;28;20051;-73
2022/09/15 01:50:30;;;;;;;8.48;1.85;;;14.60;99.90;;;;;;5055789;28;20110;-73
2022/09/15 01:53:00;;;;;;;5.15;1.98;;;14.60;99.90;;;;;;5080538;28;20048;-73
2022/09/15 01:55:36;;;;;;;6.78;2.13;;;14.60;99.90;;;;;;5087794;28;20493;-73
2022/09/15 01:58:01;;;;;;;7.93;1.98;;;14.60;99.90;;;;;;5076706;28;20060;-74
2022/09/15 02:00:31;;;;;;;5.13;1.80;;;14.60;99.90;;;;;;5091968;28;20050;-73
2022/09/15 02:03:03;;;;;;;5.88;1.67;;;14.60;99.90;;;;;;5093647;28;20081;-73
2022/09/15 02:05:39;;;;;;;8.70;1.85;;;14.60;99.90;;;;;;5088538;28;20068;-74
2022/09/15 02:08:32;;;;;;;6.20;1.70;;;14.60;99.90;;;;;;5070212;28;20084;-73
2022/09/15 02:11:26;;;;;;;4.93;1.80;;;14.60;99.90;;;;;;5030219;28;20064;-73
2022/09/15 02:13:55;;;;;;;8.07;1.70;;;14.60;99.90;;;;;;5036637;28;20044;-73
2022/09/15 02:16:24;;;;;;;7.88;1.77;;;14.60;99.90;;;;;;5065403;28;20401;-73
2022/09/15 02:19:20;;;;;;;6.45;1.67;;;14.60;99.90;;;;;;5056175;28;20053;-73
2022/09/15 02:21:58;;;;;;;5.78;1.60;;;14.60;99.90;;;;;;5085773;28;20492;-73
2022/09/15 02:24:43;;;;;;;5.05;1.70;;;14.50;99.90;;;;;;5081057;28;20094;-73
2022/09/15 02:27:14;;;;;;;5.60;1.60;;;14.50;99.90;;;;;;5071561;28;20161;-73
2022/09/15 02:29:44;;;;;;;6.88;2.03;;;14.50;99.90;;;;;;5042761;28;20049;-73
2022/09/15 02:32:12;;;;;;;7.82;1.80;;;14.60;99.90;;;;;;5052697;28;20049;-74
2022/09/15 02:34:43;;;;;;;8.45;1.88;;;14.60;99.90;;;;;;5052976;28;20128;-73
2022/09/15 02:37:10;;;;;;;5.68;1.45;;;14.60;99.90;;;;;;5068568;28;20130;-74
2022/09/15 02:39:41;;;;;;;8.00;1.23;;;14.60;99.90;;;;;;5059066;28;20131;-74
2022/09/15 02:42:09;;;;;;;6.38;1.40;;;14.50;99.90;;;;;;5055071;28;20044;-73
2022/09/15 02:44:36;;;;;;;4.88;1.20;;;14.40;99.90;;;;;;5055929;28;20087;-73
2022/09/15 02:47:02;;;;;;;4.63;0.98;;;14.40;99.90;;;;;;5064064;28;20083;-74
2022/09/15 02:49:28;;;;;;;8.68;1.40;;;14.30;99.90;;;;;;5091912;28;20106;-73
2022/09/15 02:51:54;;;;;;;7.10;1.20;;;14.30;99.90;;;;;;5090441;28;20051;-73
2022/09/15 02:54:20;;;;;;;8.15;1.30;;;14.20;99.90;;;;;;5080102;28;20048;-74
2022/09/15 02:56:46;;;;;;;6.93;1.15;;;14.20;99.90;;;;;;5055016;28;20147;-74
2022/09/15 02:59:12;;;;;;;9.85;1.45;;;14.20;99.90;;;;;;5038050;28;20151;-74
2022/09/15 03:01:39;;;;;;;9.77;1.15;;;14.10;99.90;;;;;;5072340;28;20504;-74
2022/09/15 03:04:06;;;;;;;4.00;0.90;;;14.10;99.90;;;;;;5072153;28;20059;-74
2022/09/15 03:06:35;;;;;;;4.07;1.05;;;14.10;99.90;;;;;;5059030;28;20048;-73
2022/09/15 03:09:05;;;;;;;6.38;1.10;;;14.10;99.90;;;;;;5092254;28;20063;-74
2022/09/15 03:11:33;;;;;;;9.85;1.30;;;14.10;99.90;;;;;;5063399;28;20052;-74
2022/09/15 03:14:01;;;;;;;5.93;1.15;;;14.10;99.90;;;;;;5063878;28;20048;-74
2022/09/15 03:16:29;;;;;;;5.57;0.93;;;14.10;99.90;;;;;;5068427;28;20114;-73
2022/09/15 03:19:00;;;;;;;8.13;1.38;;;14.10;99.90;;;;;;5055114;28;20516;-73
2022/09/15 03:21:28;;;;;;;6.20;0.95;;;14.10;99.90;;;;;;5076774;28;20040;-73
2022/09/15 03:23:55;;;;;;;7.05;1.10;;;14.10;99.90;;;;;;5061135;28;20108;-73
2022/09/15 03:26:21;;;;;;;6.38;1.00;;;14.10;99.90;;;;;;5019080;28;20142;-73
2022/09/15 03:28:46;;;;;;;4.63;1.08;;;14.10;99.90;;;;;;5054153;28;20048;-73
2022/09/15 03:31:12;;;;;;;5.80;0.85;;;14.10;99.90;;;;;;5038728;28;20053;-73
2022/09/15 03:33:39;;;;;;;4.38;0.90;;;14.10;99.90;;;;;;5052146;28;20048;-74
2022/09/15 03:36:05;;;;;;;6.00;1.08;;;14.10;99.90;;;;;;5058930;28;20191;-73
2022/09/15 03:38:31;;;;;;;3.80;0.90;;;14.10;99.90;;;;;;5045777;28;20742;-73
2022/09/15 03:41:06;;;;;;;4.15;0.88;;;14.10;99.90;;;;;;5062653;28;20048;-73
2022/09/15 03:43:33;;;;;;;5.55;1.00;;;14.10;99.90;;;;;;5063308;28;20194;-73
2022/09/15 03:45:59;;;;;;;7.07;1.08;;;14.10;99.90;;;;;;5053535;28;20123;-73
2022/09/15 03:48:26;;;;;;;5.55;1.00;;;14.10;99.90;;;;;;5035082;28;20091;-74
2022/09/15 03:50:52;;;;;;;7.68;1.10;;;14.10;99.90;;;;;;5053686;28;20186;-74
2022/09/15 03:53:19;;;;;;;3.85;0.80;;;14.10;99.90;;;;;;5052764;28;20392;-74
2022/09/15 03:55:45;;;;;;;5.72;0.80;;;14.10;99.90;;;;;;5071560;28;20049;-73
2022/09/15 03:58:15;;;;;;;7.97;0.90;;;14.10;99.90;;;;;;5071492;28;20137;-74
2022/09/15 04:00:42;;;;;;;5.35;0.98;;;14.10;99.90;;;;;;5071173;28;20068;-72
2022/09/15 04:03:08;;;;;;;3.17;1.00;;;14.10;99.90;;;;;;5068735;28;20446;-72
2022/09/15 04:05:35;;;;;;;4.45;0.80;;;14.10;99.90;;;;;;5062879;28;20393;-72
2022/09/15 04:08:02;;;;;;;3.47;0.93;;;14.10;99.90;;;;;;5070307;28;20052;-72
2022/09/15 04:10:28;;;;;;;5.95;0.88;;;14.10;99.90;;;;;;5071586;28;20049;-72
2022/09/15 04:12:54;;;;;;;6.93;0.70;;;14.10;99.90;;;;;;5066505;28;20151;-72
2022/09/15 04:15:20;;;;;;;6.35;0.90;;;14.20;99.90;;;;;;5051532;28;20074;-72
2022/09/15 04:17:46;;;;;;;6.70;1.20;;;14.20;99.90;;;;;;5053183;28;20538;-72
2022/09/15 04:20:13;;;;;;;4.03;1.05;;;14.20;99.90;;;;;;5075115;28;20051;-71
2022/09/15 04:22:39;;;;;;;5.22;1.17;;;14.20;99.90;;;;;;5065621;28;20481;-71
2022/09/15 04:25:06;;;;;;;5.15;1.08;;;14.10;99.90;;;;;;5068941;28;20093;-72
2022/09/15 04:27:34;;;;;;;6.28;1.08;;;14.00;99.90;;;;;;5071292;28;20052;-71
2022/09/15 04:30:00;;;;;;;8.75;1.50;;;13.90;99.90;;;;;;5053580;28;20469;-71
2022/09/15 04:32:28;;;;;;;10.63;1.63;;;13.90;99.90;;;;;;5107653;28;20078;-71
2022/09/15 04:34:54;;;;;;;6.75;1.20;;;13.90;99.90;;;;;;5070305;28;20408;-71
2022/09/15 04:37:21;;;;;;;9.80;1.27;;;13.80;99.90;;;;;;5057167;28;20292;-71
2022/09/15 04:39:47;;;;;;;9.15;1.42;;;13.90;99.90;;;;;;5057922;28;20052;-71
2022/09/15 04:42:14;;;;;;;7.28;1.00;;;13.80;99.90;;;;;;5042012;28;20036;-71
2022/09/15 04:44:40;;;;;;;6.07;1.30;;;13.70;99.90;;;;;;5069936;28;20047;-71
2022/09/15 04:47:06;;;;;;;7.22;1.05;;;13.70;99.90;;;;;;5058076;28;20052;-71
2022/09/15 04:49:32;;;;;;;5.95;1.13;;;13.70;99.90;;;;;;5058006;28;20102;-71
2022/09/15 04:51:58;;;;;;;8.85;1.20;;;13.60;99.90;;;;;;5074551;28;20052;-71
2022/09/15 04:54:24;;;;;;;13.40;1.60;;;13.50;99.90;;;;;;5054463;28;20055;-72
2022/09/15 04:56:50;;;;;;;6.18;1.27;;;13.50;99.90;;;;;;5075736;28;20501;-71
2022/09/15 04:59:17;;;;;;;6.45;1.10;;;13.50;99.90;;;;;;5076674;28;20108;-71
2022/09/15 05:01:44;;;;;;;7.95;1.33;;;13.50;99.90;;;;;;5077581;28;20090;-72
2022/09/15 05:04:10;;;;;;;7.45;1.10;;;13.50;99.90;;;;;;5055106;28;20036;-71
2022/09/15 05:06:37;;;;;;;8.27;1.38;;;13.60;99.90;;;;;;5059681;28;20051;-71
2022/09/15 05:09:05;;;;;;;6.45;1.23;;;13.60;99.90;;;;;;5090242;28;20497;-72
2022/09/15 05:11:31;;;;;;;10.52;1.30;;;13.60;99.90;;;;;;5068831;28;20056;-71
2022/09/15 05:13:58;;;;;;;5.18;1.17;;;13.60;99.90;;;;;;5057971;28;20044;-72
2022/09/15 05:16:26;;;;;;;6.82;1.58;;;13.60;99.90;;;;;;5056864;28;20052;-72
2022/09/15 05:18:54;;;;;;;7.85;1.20;;;13.60;99.90;;;;;;5057361;28;20048;-72
2022/09/15 05:21:22;;;;;;;7.30;1.00;;;13.60;99.90;;;;;;5078230;28;20054;-72
2022/09/15 05:23:50;;;;;;;6.10;1.10;;;13.60;99.90;;;;;;5077293;28;20194;-72
2022/09/15 05:26:28;;;;;;;6.15;1.02;;;13.60;99.90;;;;;;5077306;28;20392;-73
2022/09/15 05:28:55;;;;;;;6.03;1.10;;;13.60;99.90;;;;;;5075416;28;20044;-72
2022/09/15 05:31:24;;;;;;;5.30;1.20;;;13.70;99.90;;;;;;5072488;28;20412;-73
2022/09/15 05:33:51;;;;;;;5.38;1.25;;;13.70;99.90;;;;;;5057339;28;20056;-72
2022/09/15 05:36:19;;;;;;;10.30;1.20;;;13.70;99.90;;;;;;5072495;28;20050;-72
2022/09/15 05:38:45;;;;;;;6.07;1.10;;;13.80;99.90;;;;;;5073244;28;20044;-71
2022/09/15 05:41:14;;;;;;;6.88;1.20;;;13.70;99.90;;;;;;5073618;28;20052;-71
2022/09/15 05:43:40;;;;;;;7.55;1.20;;;13.70;99.90;;;;;;5073097;28;20044;-72
2022/09/15 05:46:07;;;;;;;6.85;1.30;;;13.70;99.90;;;;;;5073762;28;20389;-72
2022/09/15 05:48:33;;;;;;;8.15;1.17;;;13.60;99.90;;;;;;5036674;28;20129;-72
2022/09/15 05:50:59;;;;;;;7.15;1.25;;;13.60;99.90;;;;;;5066788;28;20105;-72
2022/09/15 05:53:25;;;;;;;8.52;1.42;;;13.60;99.90;;;;;;5085797;28;20037;-72
2022/09/15 05:55:59;;;;;;;7.03;1.30;;;13.50;99.90;;;;;;5073595;28;20060;-73
2022/09/15 05:58:26;;;;;;;6.88;1.42;;;13.40;99.90;;;;;;5055858;28;20128;-72
2022/09/15 06:00:54;;;;;;;6.18;1.42;;;13.40;99.90;;;;;;5073261;28;20054;-72
2022/09/15 06:03:22;;;;;;;6.40;1.40;;;13.40;99.90;;;;;;5056370;28;20127;-71
2022/09/15 06:05:48;;;;;;;5.40;1.17;;;13.40;99.90;;;;;;5058046;28;20110;-71
2022/09/15 06:08:15;;;;;;;8.13;1.20;;;13.40;99.90;;;;;;5056422;28;20052;-72
2022/09/15 06:10:41;;;;;;;4.38;1.15;;;13.40;99.90;;;;;;5056147;28;20183;-72
2022/09/15 06:13:07;;;;;;;6.03;1.10;;;13.40;99.90;;;;;;5055442;28;20131;-72
2022/09/15 06:15:32;;;;;;;5.80;1.00;;;13.40;99.90;;;;;;5073136;28;20040;-72
2022/09/15 06:17:58;;;;;;;4.60;1.00;;;13.50;99.90;;;;;;5073019;28;20048;-72
2022/09/15 06:20:24;;;;;;;7.70;1.48;;;13.50;99.90;;;;;;5071544;28;20434;-72
2022/09/15 06:22:52;;;;;;;4.20;0.90;;;13.50;99.90;;;;;;5055361;28;20051;-72
2022/09/15 06:25:18;;;;;;;6.53;1.20;;;13.60;99.90;;;;;;5056366;28;20044;-71
2022/09/15 06:27:44;;;;;;;3.47;1.05;;;13.70;99.90;;;;;;5056299;28;20044;-72
2022/09/15 06:30:10;;;;;;;8.63;1.23;;;13.80;99.90;;;;;;5056027;28;20048;-72
2022/09/15 06:32:36;;;;;;;4.78;1.20;;;13.80;99.90;;;;;;5056382;28;20072;-72
2022/09/15 06:35:06;;;;;;;7.40;1.30;;;13.90;99.90;;;;;;5058901;28;20487;-72
2022/09/15 06:37:35;;;;;;;7.15;1.35;;;13.90;99.90;;;;;;5060758;28;20106;-72
2022/09/15 06:40:03;;;;;;;6.38;1.05;;;14.00;99.90;;;;;;5072620;28;20045;-72
2022/09/15 06:42:29;;;;;;;8.88;1.70;;;14.10;99.90;;;;;;5072682;28;20607;-72
2022/09/15 06:44:55;;;;;;;8.20;1.30;;;14.30;99.90;;;;;;5072572;28;20105;-71
2022/09/15 06:47:21;;;;;;;6.82;1.27;;;14.50;99.90;;;;;;5072572;28;20054;-72
2022/09/15 06:49:47;;;;;;;3.90;1.15;;;14.70;99.90;;;;;;5054219;28;20127;-72
2022/09/15 06:52:13;;;;;;;4.85;1.00;;;14.70;99.90;;;;;;5071010;28;20053;-72
2022/09/15 06:54:38;;;;;;;5.72;1.08;;;14.80;99.90;;;;;;5072479;28;20086;-71
2022/09/15 06:57:04;;;;;;;8.27;1.20;;;14.80;99.90;;;;;;5054911;28;20045;-71
2022/09/15 06:59:30;;;;;;;6.88;1.40;;;15.00;99.90;;;;;;5037384;28;20044;-71
2022/09/15 07:01:56;;;;;;;7.40;1.23;;;15.00;99.90;;;;;;5085366;28;20075;-72
2022/09/15 07:04:22;;;;;;;8.68;1.02;;;15.20;99.90;;;;;;5062790;28;20053;-72
2022/09/15 07:06:49;;;;;;;7.78;1.27;;;15.30;99.90;;;;;;5073330;28;20050;-72
2022/09/15 07:09:15;;;;;;;5.10;1.10;;;15.50;99.90;;;;;;5071788;28;20033;-71
2022/09/15 07:11:41;;;;;;;7.93;1.02;;;15.50;99.90;;;;;;5055580;28;20048;-72
2022/09/15 07:14:07;;;;;;;3.22;0.80;;;15.60;99.90;;;;;;5071118;28;20052;-72
2022/09/15 07:16:33;;;;;;;8.48;0.93;;;15.60;99.90;;;;;;5059797;28;20123;-73
2022/09/15 07:19:00;;;;;;;3.03;0.82;;;15.60;99.90;;;;;;5044816;28;20094;-73
2022/09/15 07:21:27;;;;;;;4.45;0.75;;;15.70;99.90;;;;;;5062937;28;20443;-72
2022/09/15 07:23:56;;;;;;;4.18;0.85;;;15.70;99.90;;;;;;5069380;28;20070;-73
2022/09/15 07:26:27;;;;;;;6.40;1.02;;;15.70;99.90;;;;;;5054735;28;20424;-72
2022/09/15 07:29:01;;;;;;;5.05;1.02;;;15.80;99.90;;;;;;5064420;28;20055;-73
2022/09/15 07:31:30;;;;;;;7.45;1.00;;;15.80;99.90;;;;;;5052616;28;20052;-72
2022/09/15 07:33:57;;;;;;;6.97;1.00;;;15.80;99.90;;;;;;5071717;28;20048;-72
2022/09/15 07:36:23;;;;;;;6.82;0.90;;;15.90;99.90;;;;;;5054946;28;20045;-72
2022/09/15 07:38:50;;;;;;;5.80;1.00;;;16.00;99.90;;;;;;5052031;28;20052;-72
2022/09/15 07:41:24;;;;;;;5.47;0.90;;;16.10;99.90;;;;;;5049431;28;20036;-71
2022/09/15 07:43:52;;;;;;;8.48;1.27;;;16.10;99.90;;;;;;5069261;28;20549;-72
2022/09/15 07:46:20;;;;;;;5.50;0.82;;;16.10;99.90;;;;;;5060506;28;20052;-72
2022/09/15 07:48:48;;;;;;;5.90;1.05;;;16.10;99.90;;;;;;5050675;28;20080;-72
2022/09/15 07:51:14;;;;;;;8.18;1.20;;;16.10;99.90;;;;;;5054768;28;20056;-73
2022/09/15 07:53:42;;;;;;;5.43;0.80;;;16.10;99.90;;;;;;5064906;28;20052;-72
2022/09/15 07:56:08;;;;;;;5.43;0.73;;;16.10;99.90;;;;;;5049954;28;20564;-73
2022/09/15 07:58:34;;;;;;;6.40;1.00;;;16.20;99.90;;;;;;5057358;28;20054;-73
2022/09/15 08:01:01;;;;;;;3.25;0.70;;;16.30;99.90;;;;;;5048599;28;20063;-72
2022/09/15 08:03:27;;;;;;;4.38;0.90;;;16.30;99.90;;;;;;5076660;28;20055;-72
2022/09/15 08:06:02;;;;;;;8.88;1.15;;;16.30;99.90;;;;;;5070859;28;20037;-72
2022/09/15 08:08:29;;;;;;;3.53;0.80;;;16.30;99.90;;;;;;5076680;28;20037;-73
2022/09/15 08:10:55;;;;;;;6.05;1.10;;;16.20;99.90;;;;;;5069769;28;20052;-73
2022/09/15 08:13:21;;;;;;;5.40;0.80;;;16.30;99.90;;;;;;5058903;28;20044;-72
2022/09/15 08:15:47;;;;;;;8.68;1.08;;;16.30;99.90;;;;;;5078079;28;20481;-72
2022/09/15 08:18:14;;;;;;;4.50;0.98;;;16.30;99.90;;;;;;5058623;28;20093;-72
2022/09/15 08:20:41;;;;;;;5.63;1.20;;;16.30;99.90;;;;;;5074376;28;20091;-73
2022/09/15 08:23:08;;;;;;;3.50;1.05;;;16.40;99.90;;;;;;5040315;28;20075;-72
2022/09/15 08:25:34;;;;;;;4.35;1.13;;;16.60;99.90;;;;;;5071162;28;20051;-73
2022/09/15 08:28:00;;;;;;;2.55;0.80;;;16.90;99.90;;;;;;5060807;28;20036;-72
2022/09/15 08:30:26;;;;;;;5.35;1.20;;;17.00;99.90;;;;;;5053748;28;20041;-72
2022/09/15 08:32:52;;;;;;;6.60;0.95;;;16.80;99.90;;;;;;5048764;28;20401;-72
2022/09/15 08:35:18;;;;;;;2.97;0.93;;;16.80;99.90;;;;;;5053113;28;20083;-72
2022/09/15 08:37:45;;;;;;;6.60;1.00;;;16.80;99.90;;;;;;5057437;28;20139;-72
2022/09/15 08:40:27;;;;;;;9.18;1.50;;;16.80;99.90;;;;;;5041908;28;20071;-72
2022/09/15 08:42:57;;;;;;;4.75;1.00;;;16.90;99.90;;;;;;5078269;28;20216;-72
2022/09/15 08:45:34;;;;;;;5.25;0.90;;;17.00;99.90;;;;;;5072801;28;20047;-72
2022/09/15 08:48:03;;;;;;;4.50;0.90;;;17.10;99.90;;;;;;5078330;28;20051;-72
2022/09/15 08:50:40;;;;;;;3.85;1.00;;;17.10;99.90;;;;;;5075465;28;20054;-73
2022/09/15 08:53:40;;;;;;;11.95;1.50;;;16.90;99.90;;;;;;5071029;28;20048;-69
2022/09/15 08:56:16;;;;;;;10.25;1.50;;;16.60;99.90;;;;;;5041064;28;20520;-71
2022/09/15 08:58:44;;;;;;;8.65;1.48;;;15.90;99.90;;;;;;5062890;28;20056;-71
2022/09/15 09:01:10;;;;;;;8.05;1.52;;;15.70;99.90;;;;;;5057017;28;20090;-71
2022/09/15 09:04:05;;;;;;;5.28;1.30;;;15.70;99.90;;;;;;5074703;28;20048;-71
2022/09/15 09:06:41;;;;;;;8.55;1.50;;;15.70;99.90;;;;;;5074432;28;20087;-71
2022/09/15 09:09:19;;;;;;;6.72;1.85;;;15.80;99.90;;;;;;5074220;28;20048;-71
2022/09/15 09:11:59;;;;;;;6.82;1.38;;;15.90;99.90;;;;;;5071523;28;21693;-71
2022/09/15 09:14:34;;;;;;;5.82;1.35;;;16.00;99.90;;;;;;5086570;28;20045;-72
2022/09/15 09:17:19;;;;;;;9.52;1.40;;;16.00;99.90;;;;;;5074397;28;20052;-71
2022/09/15 09:20:18;;;;;;;8.15;1.40;;;15.90;99.90;;;;;;5074438;28;20044;-71
2022/09/15 09:22:47;;;;;;;6.82;1.50;;;15.90;99.90;;;;;;5067832;28;20048;-71
2022/09/15 09:25:16;;;;;;;6.20;1.83;;;15.90;99.90;;;;;;5064948;28;20094;-72
2022/09/15 09:27:42;;;;;;;6.97;1.60;;;16.10;99.90;;;;;;5054750;28;20047;-72
2022/09/15 09:30:23;;;;;;;9.25;1.67;;;16.40;99.90;;;;;;5075046;28;20045;-71
2022/09/15 09:33:04;;;;;;;6.05;1.42;;;16.50;99.90;;;;;;5070189;28;20059;-71
2022/09/15 09:35:42;;;;;;;4.22;1.13;;;16.60;99.90;;;;;;5064600;28;20045;-71
2022/09/15 09:38:09;;;;;;;9.25;1.40;;;16.50;99.90;;;;;;5053147;28;20056;-71
2022/09/15 09:40:38;;;;;;;7.35;1.33;;;16.40;99.90;;;;;;5056706;28;20115;-72
2022/09/15 09:43:03;;;;;;;6.00;1.30;;;16.50;99.90;;;;;;5069283;28;20032;-71
2022/09/15 09:45:29;;;;;;;8.25;1.33;;;16.40;99.90;;;;;;5047184;28;20049;-72
2022/09/15 09:48:02;;;;;;;5.00;1.30;;;16.60;99.90;;;;;;5064670;28;20548;-72
2022/09/15 09:50:31;;;;;;;5.57;1.30;;;16.60;99.90;;;;;;5064791;28;20132;-72
2022/09/15 09:52:57;;;;;;;6.35;1.48;;;16.70;99.90;;;;;;5047135;28;20053;-72
2022/09/15 09:55:25;;;;;;;5.78;1.30;;;16.80;99.90;;;;;;5064002;28;20060;-72
2022/09/15 09:57:53;;;;;;;7.72;1.33;;;16.80;99.90;;;;;;5045408;28;20063;-72
2022/09/15 10:00:37;;;;;;;6.25;1.33;;;16.90;99.90;;;;;;5056920;28;20048;-71
2022/09/15 10:03:25;;;;;;;6.18;1.23;;;16.90;99.90;;;;;;5073475;28;20431;-72
2022/09/15 10:06:12;;;;;;;5.88;1.35;;;17.00;99.90;;;;;;5038581;28;20052;-72
2022/09/15 10:08:55;;;;;;;5.18;1.08;;;17.10;99.90;;;;;;5073110;28;20119;-71
2022/09/15 10:11:36;;;;;;;8.80;1.30;;;17.30;99.90;;;;;;5056557;28;20051;-71
2022/09/15 10:14:02;;;;;;;6.18;1.10;;;16.60;99.90;;;;;;5073357;28;20056;-71
2022/09/15 10:16:28;;;;;;;3.88;1.20;;;16.40;99.90;;;;;;5054536;28;20098;-71
2022/09/15 10:18:57;;;;;;;4.10;0.90;;;16.40;99.90;;;;;;5049798;28;20055;-71
2022/09/15 10:21:24;;;;;;;5.70;1.10;;;16.30;99.90;;;;;;5056609;28;20048;-71
2022/09/15 10:23:50;;;;;;;3.70;1.05;;;16.30;99.90;;;;;;5056478;28;20052;-71
2022/09/15 10:26:43;;;;;;;5.78;1.13;;;16.30;99.90;;;;;;5073164;28;20048;-71
2022/09/15 10:29:17;;;;;;;6.30;1.00;;;16.40;99.90;;;;;;5060493;28;20040;-71
2022/09/15 10:31:44;;;;;;;6.00;0.90;;;16.50;99.90;;;;;;5063482;28;20052;-71
2022/09/15 10:34:29;;;;;;;2.08;1.00;;;16.40;99.90;;;;;;5055912;28;20048;-71
2022/09/15 10:37:22;;;;;;;3.47;0.93;;;16.40;99.90;;;;;;5070952;28;20066;-72
2022/09/15 10:39:52;;;;;;;8.15;1.30;;;16.70;99.90;;;;;;5057527;28;20052;-71
2022/09/15 10:42:44;;;;;;;4.72;1.10;;;17.30;99.90;;;;;;5064370;28;20125;-71
2022/09/15 10:45:33;;;;;;;5.03;1.17;;;17.50;99.90;;;;;;5055773;28;20052;-71
2022/09/15 10:48:36;;;;;;;5.55;1.05;;;17.20;99.90;;;;;;5055742;28;20090;-72
2022/09/15 10:51:39;;;;;;;7.40;1.38;;;17.30;99.90;;;;;;5071840;28;20098;-71
2022/09/15 10:54:16;;;;;;;4.30;1.00;;;17.10;99.90;;;;;;5052544;28;20110;-70
2022/09/15 10:56:46;;;;;;;4.28;1.20;;;16.90;99.90;;;;;;5035922;28;20158;-70
2022/09/15 10:59:55;;;;;;;5.32;1.20;;;16.50;99.90;;;;;;5068888;28;20067;-70
2022/09/15 11:02:52;;;;;;;10.80;1.50;;;16.20;99.90;;;;;;4998609;28;20419;-69
2022/09/15 11:05:33;;;;;;;3.47;1.15;;;15.80;99.90;;;;;;5046770;28;20044;-71
2022/09/15 11:08:14;;;;;;;5.85;1.00;;;15.50;99.90;;;;;;5078138;28;20521;-71
2022/09/15 11:11:01;;;;;;;9.50;1.50;;;15.40;99.90;;;;;;5066975;28;20049;-71
2022/09/15 11:13:49;;;;;;;8.90;1.42;;;15.30;99.90;;;;;;5072007;28;20123;-71
2022/09/15 11:16:37;;;;;;;5.43;1.23;;;15.10;99.90;;;;;;5055327;28;20480;-70
2022/09/15 11:19:27;;;;;;;3.45;1.00;;;15.00;99.90;;;;;;5071780;28;20485;-71
2022/09/15 11:22:18;;;;;;;5.55;1.23;;;15.00;99.90;;;;;;5068959;28;20053;-71
2022/09/15 11:24:59;;;;;;;6.57;1.42;;;15.20;99.90;;;;;;5051739;28;20072;-71
2022/09/15 11:27:45;;;;;;;5.18;1.00;;;15.40;99.90;;;;;;5035418;28;20045;-72
2022/09/15 11:30:21;;;;;;;5.13;1.00;;;15.70;99.90;;;;;;5052868;28;20118;-71
2022/09/15 11:33:21;;;;;;;6.65;1.45;;;15.90;99.90;;;;;;5085893;28;20044;-72
2022/09/15 11:35:54;;;;;;;8.20;1.13;;;16.20;99.90;;;;;;5055805;28;20056;-71
2022/09/15 11:38:39;;;;;;;3.90;0.90;;;16.30;99.90;;;;;;5071105;28;20092;-71
2022/09/15 11:41:14;;;;;;;7.38;1.35;;;16.50;99.90;;;;;;5054123;28;20045;-71
2022/09/15 11:43:47;;;;;;;3.83;1.15;;;17.00;99.90;;;;;;5049721;28;20072;-73
2022/09/15 11:46:22;;;;;;;6.88;1.08;;;17.20;99.90;;;;;;5054363;28;20047;-72
2022/09/15 11:49:03;;;;;;;4.47;1.00;;;17.40;99.90;;;;;;5071787;28;20056;-71
2022/09/15 11:51:37;;;;;;;3.53;0.98;;;17.50;99.90;;;;;;5066491;28;20573;-72
2022/09/15 11:54:20;;;;;;;3.65;0.90;;;17.50;99.90;;;;;;5051789;28;20063;-71
2022/09/15 11:56:47;;;;;;;2.92;0.80;;;17.80;99.90;;;;;;5071381;28;20106;-71
2022/09/15 11:59:22;;;;;;;6.53;0.90;;;18.10;99.90;;;;;;5071373;28;20049;-72
2022/09/15 12:02:19;;;;;;;3.80;1.00;;;18.30;99.90;;;;;;5071552;28;20047;-71
2022/09/15 12:05:26;;;;;;;4.65;0.90;;;18.30;99.90;;;;;;5062874;28;20041;-72
2022/09/15 12:07:59;;;;;;;4.80;0.93;;;18.20;99.90;;;;;;5033275;28;20049;-71
2022/09/15 12:10:30;;;;;;;4.93;1.30;;;18.30;99.90;;;;;;5050176;28;20056;-71
2022/09/15 12:12:59;;;;;;;7.43;1.20;;;18.80;99.90;;;;;;5071110;28;20128;-71
2022/09/15 12:15:28;;;;;;;1.85;0.80;;;19.50;99.90;;;;;;5086667;28;20059;-71
2022/09/15 12:18:15;;;;;;;4.45;1.00;;;20.00;99.90;;;;;;5022160;28;20522;-71
2022/09/15 12:20:59;;;;;;;2.30;0.90;;;20.30;99.90;;;;;;5071477;28;20145;-72
2022/09/15 12:23:37;;;;;;;4.55;0.90;;;20.50;99.90;;;;;;5071439;28;20055;-72
2022/09/15 12:26:13;;;;;;;5.05;0.90;;;20.10;99.90;;;;;;5054743;28;20040;-72
2022/09/15 12:28:50;;;;;;;4.03;0.60;;;20.10;99.90;;;;;;5071277;28;20040;-71
2022/09/15 12:31:25;;;;;;;3.55;1.10;;;19.80;99.90;;;;;;5070008;28;20455;-71
2022/09/15 12:34:32;;;;;;;4.75;1.20;;;19.30;99.90;;;;;;5070669;28;20512;-71
2022/09/15 12:37:14;;;;;;;5.15;0.80;;;19.50;99.90;;;;;;5037415;28;20056;-71
2022/09/15 12:39:44;;;;;;;2.92;0.95;;;19.70;99.90;;;;;;5070800;28;20512;-71
2022/09/15 12:42:19;;;;;;;3.50;1.00;;;20.10;99.90;;;;;;5057691;28;20071;-71
2022/09/15 12:45:19;;;;;;;4.28;1.08;;;20.20;99.90;;;;;;5075785;28;20119;-72
2022/09/15 12:48:02;;;;;;;1.67;0.70;;;20.20;99.90;;;;;;5089117;28;20078;-71
2022/09/15 12:50:31;;;;;;;5.50;1.05;;;20.10;99.90;;;;;;5074459;28;20394;-71
2022/09/15 12:53:00;;;;;;;4.20;0.90;;;20.20;99.90;;;;;;5086159;28;20052;-72
2022/09/15 12:55:33;;;;;;;1.92;0.82;;;20.30;99.90;;;;;;5091125;28;20488;-71
2022/09/15 12:58:12;;;;;;;4.50;0.80;;;20.20;99.90;;;;;;5093342;28;20403;-72
2022/09/15 13:00:40;;;;;;;5.18;1.00;;;20.30;99.90;;;;;;5082896;28;20040;-71
2022/09/15 13:03:48;;;;;;;3.00;1.10;;;20.40;99.90;;;;;;5050438;28;20392;-71
2022/09/15 13:06:31;;;;;;;5.15;1.00;;;21.20;99.90;;;;;;5038931;28;20049;-71
2022/09/15 13:09:24;;;;;;;5.97;0.90;;;22.30;99.90;;;;;;5064046;28;20048;-72
2022/09/15 13:11:53;;;;;;;3.25;0.88;;;23.70;99.90;;;;;;5064284;28;20067;-73
2022/09/15 13:14:33;;;;;;;5.45;0.98;;;23.40;99.90;;;;;;5070388;28;20389;-72